sensor_id;sensor_type;location;lat;lon;timestamp;temperature;humidity
19050;DHT22;9657;45.940;12.840;2023-03-01T00:00:04;11.70;62.90
19050;DHT22;9657;45.940;12.840;2023-03-01T00:02:32;11.70;62.90
19050;DHT22;9657;45.940;12.840;2023-03-01T00:04:59;11.70;62.90
19050;DHT22;9657;45.940;12.840;2023-03-01T00:07:28;11.70;63.00
19050;DHT22;9657;45.940;12.840;2023-03-01T00:09:55;11.70;63.10
19050;DHT22;9657;45.940;12.840;2023-03-01T00:12:22;11.70;63.00
19050;DHT22;9657;45.940;12.840;2023-03-01T00:14:49;11.70;63.00
19050;DHT22;9657;45.940;12.840;2023-03-01T00:17:16;11.70;63.10
19050;DHT22;9657;45.940;12.840;2023-03-01T00:19:43;11.70;63.00
19050;DHT22;9657;45.940;12.840;2023-03-01T00:22:10;11.70;62.90
19050;DHT22;9657;45.940;12.840;2023-03-01T00:24:39;11.70;62.90
19050;DHT22;9657;45.940;12.840;2023-03-01T00:27:06;11.70;62.80
19050;DHT22;9657;45.940;12.840;2023-03-01T00:29:33;11.60;62.70
19050;DHT22;9657;45.940;12.840;2023-03-01T00:32:00;11.70;62.80
19050;DHT22;9657;45.940;12.840;2023-03-01T00:34:27;11.70;62.90
19050;DHT22;9657;45.940;12.840;2023-03-01T00:36:54;11.70;62.80
19050;DHT22;9657;45.940;12.840;2023-03-01T00:39:21;11.70;62.80
19050;DHT22;9657;45.940;12.840;2023-03-01T00:41:49;11.70;62.80
19050;DHT22;9657;45.940;12.840;2023-03-01T00:44:16;11.70;62.70
19050;DHT22;9657;45.940;12.840;2023-03-01T00:46:43;11.70;62.70
19050;DHT22;9657;45.940;12.840;2023-03-01T00:49:10;11.70;62.70
19050;DHT22;9657;45.940;12.840;2023-03-01T00:51:37;11.60;62.70
19050;DHT22;9657;45.940;12.840;2023-03-01T00:54:08;11.70;62.80
19050;DHT22;9657;45.940;12.840;2023-03-01T00:56:35;11.60;62.70
19050;DHT22;9657;45.940;12.840;2023-03-01T00:59:03;11.70;62.80
19050;DHT22;9657;45.940;12.840;2023-03-01T01:01:31;11.70;62.70
19050;DHT22;9657;45.940;12.840;2023-03-01T01:04:00;11.60;62.70
19050;DHT22;9657;45.940;12.840;2023-03-01T01:06:29;11.70;62.80
19050;DHT22;9657;45.940;12.840;2023-03-01T01:08:57;11.70;62.80
19050;DHT22;9657;45.940;12.840;2023-03-01T01:11:26;11.60;62.70
19050;DHT22;9657;45.940;12.840;2023-03-01T01:13:54;11.60;62.70
19050;DHT22;9657;45.940;12.840;2023-03-01T01:16:24;11.60;62.70
19050;DHT22;9657;45.940;12.840;2023-03-01T01:18:51;11.60;62.70
19050;DHT22;9657;45.940;12.840;2023-03-01T01:21:22;11.60;62.70
19050;DHT22;9657;45.940;12.840;2023-03-01T01:23:50;11.60;62.70
19050;DHT22;9657;45.940;12.840;2023-03-01T01:26:19;11.60;62.70
19050;DHT22;9657;45.940;12.840;2023-03-01T01:28:46;11.60;62.70
19050;DHT22;9657;45.940;12.840;2023-03-01T01:31:14;11.60;62.60
19050;DHT22;9657;45.940;12.840;2023-03-01T01:33:43;11.60;62.70
19050;DHT22;9657;45.940;12.840;2023-03-01T01:36:10;11.60;62.70
19050;DHT22;9657;45.940;12.840;2023-03-01T01:38:38;11.60;62.70
19050;DHT22;9657;45.940;12.840;2023-03-01T01:41:06;11.60;62.70
19050;DHT22;9657;45.940;12.840;2023-03-01T01:43:35;11.60;62.70
19050;DHT22;9657;45.940;12.840;2023-03-01T01:46:04;11.60;62.60
19050;DHT22;9657;45.940;12.840;2023-03-01T01:48:38;11.60;62.60
19050;DHT22;9657;45.940;12.840;2023-03-01T01:51:14;11.60;62.70
19050;DHT22;9657;45.940;12.840;2023-03-01T01:53:42;11.60;62.60
19050;DHT22;9657;45.940;12.840;2023-03-01T01:56:13;11.60;62.60
19050;DHT22;9657;45.940;12.840;2023-03-01T01:58:43;11.60;62.70
19050;DHT22;9657;45.940;12.840;2023-03-01T02:03:46;11.60;62.60
19050;DHT22;9657;45.940;12.840;2023-03-01T02:06:21;11.60;62.70
19050;DHT22;9657;45.940;12.840;2023-03-01T02:08:49;11.60;62.70
19050;DHT22;9657;45.940;12.840;2023-03-01T02:11:19;11.60;62.70
19050;DHT22;9657;45.940;12.840;2023-03-01T02:13:48;11.60;62.60
19050;DHT22;9657;45.940;12.840;2023-03-01T02:16:16;11.60;62.70
19050;DHT22;9657;45.940;12.840;2023-03-01T02:18:44;11.60;62.60
19050;DHT22;9657;45.940;12.840;2023-03-01T02:21:34;11.60;62.70
19050;DHT22;9657;45.940;12.840;2023-03-01T02:24:10;11.60;62.70
19050;DHT22;9657;45.940;12.840;2023-03-01T02:26:45;11.60;62.70
19050;DHT22;9657;45.940;12.840;2023-03-01T02:29:15;11.60;62.60
19050;DHT22;9657;45.940;12.840;2023-03-01T02:31:42;11.60;62.60
19050;DHT22;9657;45.940;12.840;2023-03-01T02:34:10;11.60;62.60
19050;DHT22;9657;45.940;12.840;2023-03-01T02:36:39;11.60;62.60
19050;DHT22;9657;45.940;12.840;2023-03-01T02:39:10;11.60;62.60
19050;DHT22;9657;45.940;12.840;2023-03-01T02:41:46;11.60;62.60
19050;DHT22;9657;45.940;12.840;2023-03-01T02:44:16;11.60;62.60
19050;DHT22;9657;45.940;12.840;2023-03-01T02:46:45;11.60;62.60
19050;DHT22;9657;45.940;12.840;2023-03-01T02:49:24;11.60;62.70
19050;DHT22;9657;45.940;12.840;2023-03-01T02:52:14;11.60;62.70
19050;DHT22;9657;45.940;12.840;2023-03-01T02:54:48;11.60;62.70
19050;DHT22;9657;45.940;12.840;2023-03-01T02:57:17;11.60;62.70
19050;DHT22;9657;45.940;12.840;2023-03-01T02:59:46;11.60;62.70
19050;DHT22;9657;45.940;12.840;2023-03-01T03:02:21;11.60;62.70
19050;DHT22;9657;45.940;12.840;2023-03-01T03:05:06;11.60;62.80
19050;DHT22;9657;45.940;12.840;2023-03-01T03:07:34;11.60;62.70
19050;DHT22;9657;45.940;12.840;2023-03-01T03:10:02;11.60;62.80
19050;DHT22;9657;45.940;12.840;2023-03-01T03:12:29;11.60;62.80
19050;DHT22;9657;45.940;12.840;2023-03-01T03:14:57;11.60;62.80
19050;DHT22;9657;45.940;12.840;2023-03-01T03:17:24;11.60;62.80
19050;DHT22;9657;45.940;12.840;2023-03-01T03:19:51;11.50;62.70
19050;DHT22;9657;45.940;12.840;2023-03-01T03:22:18;11.50;62.70
19050;DHT22;9657;45.940;12.840;2023-03-01T03:24:45;11.60;62.70
19050;DHT22;9657;45.940;12.840;2023-03-01T03:27:12;11.50;62.60
19050;DHT22;9657;45.940;12.840;2023-03-01T03:29:39;11.50;62.70
19050;DHT22;9657;45.940;12.840;2023-03-01T03:32:07;11.50;62.60
19050;DHT22;9657;45.940;12.840;2023-03-01T03:34:34;11.50;62.70
19050;DHT22;9657;45.940;12.840;2023-03-01T03:37:01;11.50;62.60
19050;DHT22;9657;45.940;12.840;2023-03-01T03:39:28;11.50;62.70
19050;DHT22;9657;45.940;12.840;2023-03-01T03:42:01;11.50;62.70
19050;DHT22;9657;45.940;12.840;2023-03-01T03:44:28;11.50;62.60
19050;DHT22;9657;45.940;12.840;2023-03-01T03:46:55;11.50;62.60
19050;DHT22;9657;45.940;12.840;2023-03-01T03:49:24;11.50;62.60
19050;DHT22;9657;45.940;12.840;2023-03-01T03:51:51;11.50;62.70
19050;DHT22;9657;45.940;12.840;2023-03-01T03:54:18;11.50;62.60
19050;DHT22;9657;45.940;12.840;2023-03-01T03:56:45;11.50;62.60
19050;DHT22;9657;45.940;12.840;2023-03-01T03:59:12;11.50;62.60
19050;DHT22;9657;45.940;12.840;2023-03-01T04:01:39;11.50;62.60
19050;DHT22;9657;45.940;12.840;2023-03-01T04:04:06;11.50;62.60
19050;DHT22;9657;45.940;12.840;2023-03-01T04:06:34;11.50;62.50
19050;DHT22;9657;45.940;12.840;2023-03-01T04:09:01;11.50;62.60
19050;DHT22;9657;45.940;12.840;2023-03-01T04:11:29;11.50;62.60
19050;DHT22;9657;45.940;12.840;2023-03-01T04:13:57;11.50;62.60
19050;DHT22;9657;45.940;12.840;2023-03-01T04:16:24;11.50;62.60
19050;DHT22;9657;45.940;12.840;2023-03-01T04:18:52;11.50;62.60
19050;DHT22;9657;45.940;12.840;2023-03-01T04:21:20;11.50;62.70
19050;DHT22;9657;45.940;12.840;2023-03-01T04:23:49;11.50;62.70
19050;DHT22;9657;45.940;12.840;2023-03-01T04:26:18;11.50;62.70
19050;DHT22;9657;45.940;12.840;2023-03-01T04:28:46;11.50;62.70
19050;DHT22;9657;45.940;12.840;2023-03-01T04:31:16;11.50;62.70
19050;DHT22;9657;45.940;12.840;2023-03-01T04:33:46;11.50;62.70
19050;DHT22;9657;45.940;12.840;2023-03-01T04:36:15;11.50;62.80
19050;DHT22;9657;45.940;12.840;2023-03-01T04:38:43;11.50;62.70
19050;DHT22;9657;45.940;12.840;2023-03-01T04:41:15;11.50;62.80
19050;DHT22;9657;45.940;12.840;2023-03-01T04:43:42;11.50;62.70
19050;DHT22;9657;45.940;12.840;2023-03-01T04:46:11;11.50;62.70
19050;DHT22;9657;45.940;12.840;2023-03-01T04:48:40;11.50;62.80
19050;DHT22;9657;45.940;12.840;2023-03-01T04:51:07;11.50;62.70
19050;DHT22;9657;45.940;12.840;2023-03-01T04:53:35;11.50;63.00
19050;DHT22;9657;45.940;12.840;2023-03-01T04:56:03;11.50;62.70
19050;DHT22;9657;45.940;12.840;2023-03-01T04:58:32;11.50;62.80
19050;DHT22;9657;45.940;12.840;2023-03-01T05:00:59;11.50;62.80
19050;DHT22;9657;45.940;12.840;2023-03-01T05:03:26;11.50;62.80
19050;DHT22;9657;45.940;12.840;2023-03-01T05:05:53;11.50;62.80
19050;DHT22;9657;45.940;12.840;2023-03-01T05:08:20;11.50;62.80
19050;DHT22;9657;45.940;12.840;2023-03-01T05:10:49;11.50;62.80
19050;DHT22;9657;45.940;12.840;2023-03-01T05:13:18;11.50;62.80
19050;DHT22;9657;45.940;12.840;2023-03-01T05:15:53;11.50;62.80
19050;DHT22;9657;45.940;12.840;2023-03-01T05:18:21;11.50;62.90
19050;DHT22;9657;45.940;12.840;2023-03-01T05:20:51;11.50;62.90
19050;DHT22;9657;45.940;12.840;2023-03-01T05:23:18;11.50;62.90
19050;DHT22;9657;45.940;12.840;2023-03-01T05:25:45;11.50;63.00
19050;DHT22;9657;45.940;12.840;2023-03-01T05:28:13;11.50;63.00
19050;DHT22;9657;45.940;12.840;2023-03-01T05:30:42;11.50;63.00
19050;DHT22;9657;45.940;12.840;2023-03-01T05:33:10;11.40;62.90
19050;DHT22;9657;45.940;12.840;2023-03-01T05:35:40;11.50;63.00
19050;DHT22;9657;45.940;12.840;2023-03-01T05:38:08;11.50;63.00
19050;DHT22;9657;45.940;12.840;2023-03-01T05:40:39;11.50;63.00
19050;DHT22;9657;45.940;12.840;2023-03-01T05:43:06;11.50;63.00
19050;DHT22;9657;45.940;12.840;2023-03-01T05:45:35;11.40;62.90
19050;DHT22;9657;45.940;12.840;2023-03-01T05:48:03;11.50;63.00
19050;DHT22;9657;45.940;12.840;2023-03-01T05:50:34;11.50;63.00
19050;DHT22;9657;45.940;12.840;2023-03-01T05:53:04;11.50;63.00
19050;DHT22;9657;45.940;12.840;2023-03-01T05:55:32;11.50;63.00
19050;DHT22;9657;45.940;12.840;2023-03-01T05:57:59;11.50;63.10
19050;DHT22;9657;45.940;12.840;2023-03-01T06:00:27;11.50;63.30
19050;DHT22;9657;45.940;12.840;2023-03-01T06:02:56;11.50;63.50
19050;DHT22;9657;45.940;12.840;2023-03-01T06:05:23;11.40;63.60
19050;DHT22;9657;45.940;12.840;2023-03-01T06:07:52;11.50;64.10
19050;DHT22;9657;45.940;12.840;2023-03-01T06:10:20;11.50;64.30
19050;DHT22;9657;45.940;12.840;2023-03-01T06:12:48;11.50;64.60
19050;DHT22;9657;45.940;12.840;2023-03-01T06:15:16;11.50;64.60
19050;DHT22;9657;45.940;12.840;2023-03-01T06:17:44;11.50;64.70
19050;DHT22;9657;45.940;12.840;2023-03-01T06:20:13;11.50;64.80
19050;DHT22;9657;45.940;12.840;2023-03-01T06:22:41;11.50;64.80
19050;DHT22;9657;45.940;12.840;2023-03-01T06:25:11;11.50;64.70
19050;DHT22;9657;45.940;12.840;2023-03-01T06:27:39;11.50;64.70
19050;DHT22;9657;45.940;12.840;2023-03-01T06:30:08;11.50;64.60
19050;DHT22;9657;45.940;12.840;2023-03-01T06:32:36;11.50;64.60
19050;DHT22;9657;45.940;12.840;2023-03-01T06:35:04;11.50;64.60
19050;DHT22;9657;45.940;12.840;2023-03-01T06:37:31;11.50;65.30
19050;DHT22;9657;45.940;12.840;2023-03-01T06:39:58;11.50;64.50
19050;DHT22;9657;45.940;12.840;2023-03-01T06:42:26;11.50;64.50
19050;DHT22;9657;45.940;12.840;2023-03-01T06:44:53;11.50;64.50
19050;DHT22;9657;45.940;12.840;2023-03-01T06:47:21;11.50;64.50
19050;DHT22;9657;45.940;12.840;2023-03-01T06:49:48;11.50;64.50
19050;DHT22;9657;45.940;12.840;2023-03-01T06:52:15;11.50;64.50
19050;DHT22;9657;45.940;12.840;2023-03-01T06:54:41;11.50;64.40
19050;DHT22;9657;45.940;12.840;2023-03-01T06:57:08;11.40;64.40
19050;DHT22;9657;45.940;12.840;2023-03-01T06:59:37;11.50;64.50
19050;DHT22;9657;45.940;12.840;2023-03-01T07:02:04;11.50;64.40
19050;DHT22;9657;45.940;12.840;2023-03-01T07:04:31;11.50;64.30
19050;DHT22;9657;45.940;12.840;2023-03-01T07:06:58;11.50;64.40
19050;DHT22;9657;45.940;12.840;2023-03-01T07:09:25;11.50;64.40
19050;DHT22;9657;45.940;12.840;2023-03-01T07:11:52;11.50;64.30
19050;DHT22;9657;45.940;12.840;2023-03-01T07:14:19;11.50;64.60
19050;DHT22;9657;45.940;12.840;2023-03-01T07:16:47;11.50;64.30
19050;DHT22;9657;45.940;12.840;2023-03-01T07:19:14;11.50;64.30
19050;DHT22;9657;45.940;12.840;2023-03-01T07:21:41;11.50;64.40
19050;DHT22;9657;45.940;12.840;2023-03-01T07:24:08;11.50;64.30
19050;DHT22;9657;45.940;12.840;2023-03-01T07:26:36;11.40;65.10
19050;DHT22;9657;45.940;12.840;2023-03-01T07:29:05;11.40;64.20
19050;DHT22;9657;45.940;12.840;2023-03-01T07:31:32;11.50;64.30
19050;DHT22;9657;45.940;12.840;2023-03-01T07:34:00;11.50;64.40
19050;DHT22;9657;45.940;12.840;2023-03-01T07:36:27;11.40;64.30
19050;DHT22;9657;45.940;12.840;2023-03-01T07:38:54;11.40;64.30
19050;DHT22;9657;45.940;12.840;2023-03-01T07:41:23;11.50;64.30
19050;DHT22;9657;45.940;12.840;2023-03-01T07:43:50;11.40;64.30
19050;DHT22;9657;45.940;12.840;2023-03-01T07:46:17;11.40;64.30
19050;DHT22;9657;45.940;12.840;2023-03-01T07:48:44;11.50;64.30
19050;DHT22;9657;45.940;12.840;2023-03-01T07:51:13;11.50;64.40
19050;DHT22;9657;45.940;12.840;2023-03-01T07:53:40;11.50;64.40
19050;DHT22;9657;45.940;12.840;2023-03-01T07:56:09;11.50;64.40
19050;DHT22;9657;45.940;12.840;2023-03-01T07:58:38;11.50;64.50
19050;DHT22;9657;45.940;12.840;2023-03-01T08:01:07;11.50;64.50
19050;DHT22;9657;45.940;12.840;2023-03-01T08:03:35;11.50;64.50
19050;DHT22;9657;45.940;12.840;2023-03-01T08:06:04;11.40;64.50
19050;DHT22;9657;45.940;12.840;2023-03-01T08:08:33;11.40;64.50
19050;DHT22;9657;45.940;12.840;2023-03-01T08:11:01;11.50;64.50
19050;DHT22;9657;45.940;12.840;2023-03-01T08:13:29;11.50;64.60
19050;DHT22;9657;45.940;12.840;2023-03-01T08:16:01;11.50;64.60
19050;DHT22;9657;45.940;12.840;2023-03-01T08:18:28;11.50;64.60
19050;DHT22;9657;45.940;12.840;2023-03-01T08:20:55;11.50;64.60
19050;DHT22;9657;45.940;12.840;2023-03-01T08:23:22;11.50;64.70
19050;DHT22;9657;45.940;12.840;2023-03-01T08:25:51;11.50;64.70
19050;DHT22;9657;45.940;12.840;2023-03-01T08:28:18;11.50;64.60
19050;DHT22;9657;45.940;12.840;2023-03-01T08:30:45;11.50;64.70
19050;DHT22;9657;45.940;12.840;2023-03-01T08:33:12;11.50;64.60
19050;DHT22;9657;45.940;12.840;2023-03-01T08:35:39;11.50;64.70
19050;DHT22;9657;45.940;12.840;2023-03-01T08:38:06;11.50;64.70
19050;DHT22;9657;45.940;12.840;2023-03-01T08:40:33;11.50;64.70
19050;DHT22;9657;45.940;12.840;2023-03-01T08:43:01;11.50;64.70
19050;DHT22;9657;45.940;12.840;2023-03-01T08:45:29;11.50;64.70
19050;DHT22;9657;45.940;12.840;2023-03-01T08:47:55;11.50;64.70
19050;DHT22;9657;45.940;12.840;2023-03-01T08:50:23;11.50;64.70
19050;DHT22;9657;45.940;12.840;2023-03-01T08:52:50;11.50;64.80
19050;DHT22;9657;45.940;12.840;2023-03-01T08:55:17;11.50;64.90
19050;DHT22;9657;45.940;12.840;2023-03-01T08:57:44;11.50;64.80
19050;DHT22;9657;45.940;12.840;2023-03-01T09:00:13;11.50;64.80
19050;DHT22;9657;45.940;12.840;2023-03-01T09:02:41;11.50;64.80
19050;DHT22;9657;45.940;12.840;2023-03-01T09:05:08;11.50;64.80
19050;DHT22;9657;45.940;12.840;2023-03-01T09:07:36;11.50;64.90
19050;DHT22;9657;45.940;12.840;2023-03-01T09:10:03;11.50;64.80
19050;DHT22;9657;45.940;12.840;2023-03-01T09:12:30;11.50;64.90
19050;DHT22;9657;45.940;12.840;2023-03-01T09:14:57;11.50;64.90
19050;DHT22;9657;45.940;12.840;2023-03-01T09:17:26;11.50;64.90
19050;DHT22;9657;45.940;12.840;2023-03-01T09:19:53;11.50;64.90
19050;DHT22;9657;45.940;12.840;2023-03-01T09:22:20;11.50;64.90
19050;DHT22;9657;45.940;12.840;2023-03-01T09:24:47;11.50;64.90
19050;DHT22;9657;45.940;12.840;2023-03-01T09:27:14;11.50;65.00
19050;DHT22;9657;45.940;12.840;2023-03-01T09:29:44;11.50;65.00
19050;DHT22;9657;45.940;12.840;2023-03-01T09:32:11;11.50;65.00
19050;DHT22;9657;45.940;12.840;2023-03-01T09:34:39;11.50;65.00
19050;DHT22;9657;45.940;12.840;2023-03-01T09:37:20;11.50;64.90
19050;DHT22;9657;45.940;12.840;2023-03-01T09:39:47;11.50;65.00
19050;DHT22;9657;45.940;12.840;2023-03-01T09:42:14;11.50;65.10
19050;DHT22;9657;45.940;12.840;2023-03-01T09:44:46;11.50;64.90
19050;DHT22;9657;45.940;12.840;2023-03-01T09:47:18;11.50;64.90
19050;DHT22;9657;45.940;12.840;2023-03-01T09:49:54;11.50;64.80
19050;DHT22;9657;45.940;12.840;2023-03-01T09:52:29;11.50;64.80
19050;DHT22;9657;45.940;12.840;2023-03-01T09:55:00;11.50;64.90
19050;DHT22;9657;45.940;12.840;2023-03-01T09:57:33;11.50;64.80
19050;DHT22;9657;45.940;12.840;2023-03-01T10:03:00;11.60;64.80
19050;DHT22;9657;45.940;12.840;2023-03-01T10:05:44;11.50;64.80
19050;DHT22;9657;45.940;12.840;2023-03-01T10:08:31;11.50;64.80
19050;DHT22;9657;45.940;12.840;2023-03-01T10:11:02;11.60;64.80
19050;DHT22;9657;45.940;12.840;2023-03-01T10:13:37;11.50;64.80
19050;DHT22;9657;45.940;12.840;2023-03-01T10:16:14;11.60;64.80
19050;DHT22;9657;45.940;12.840;2023-03-01T10:18:46;11.60;64.80
19050;DHT22;9657;45.940;12.840;2023-03-01T10:21:17;11.60;64.80
19050;DHT22;9657;45.940;12.840;2023-03-01T10:23:44;11.60;64.80
19050;DHT22;9657;45.940;12.840;2023-03-01T10:26:29;11.60;64.70
19050;DHT22;9657;45.940;12.840;2023-03-01T10:29:02;11.60;64.70
19050;DHT22;9657;45.940;12.840;2023-03-01T10:31:38;11.60;64.70
19050;DHT22;9657;45.940;12.840;2023-03-01T10:34:13;11.60;64.70
19050;DHT22;9657;45.940;12.840;2023-03-01T10:36:42;11.60;64.70
19050;DHT22;9657;45.940;12.840;2023-03-01T10:39:13;11.60;64.70
19050;DHT22;9657;45.940;12.840;2023-03-01T10:41:53;11.60;64.70
19050;DHT22;9657;45.940;12.840;2023-03-01T10:44:40;11.60;64.70
19050;DHT22;9657;45.940;12.840;2023-03-01T10:47:14;11.60;64.60
19050;DHT22;9657;45.940;12.840;2023-03-01T10:49:58;11.60;64.70
19050;DHT22;9657;45.940;12.840;2023-03-01T10:52:31;11.60;64.70
19050;DHT22;9657;45.940;12.840;2023-03-01T10:55:01;11.60;64.70
19050;DHT22;9657;45.940;12.840;2023-03-01T10:57:32;11.60;64.70
19050;DHT22;9657;45.940;12.840;2023-03-01T11:00:15;11.60;64.70
19050;DHT22;9657;45.940;12.840;2023-03-01T11:02:48;11.60;64.60
19050;DHT22;9657;45.940;12.840;2023-03-01T11:05:21;11.60;64.70
19050;DHT22;9657;45.940;12.840;2023-03-01T11:07:52;11.60;64.60
19050;DHT22;9657;45.940;12.840;2023-03-01T11:10:22;11.60;64.60
19050;DHT22;9657;45.940;12.840;2023-03-01T11:12:51;11.60;64.60
19050;DHT22;9657;45.940;12.840;2023-03-01T11:15:24;11.60;64.70
19050;DHT22;9657;45.940;12.840;2023-03-01T11:17:52;11.60;64.60
19050;DHT22;9657;45.940;12.840;2023-03-01T11:20:25;11.60;64.60
19050;DHT22;9657;45.940;12.840;2023-03-01T11:22:55;11.60;64.60
19050;DHT22;9657;45.940;12.840;2023-03-01T11:25:25;11.60;64.60
19050;DHT22;9657;45.940;12.840;2023-03-01T11:27:54;11.60;64.60
19050;DHT22;9657;45.940;12.840;2023-03-01T11:30:25;11.60;64.50
19050;DHT22;9657;45.940;12.840;2023-03-01T11:33:03;11.60;64.50
19050;DHT22;9657;45.940;12.840;2023-03-01T11:35:32;11.60;64.50
19050;DHT22;9657;45.940;12.840;2023-03-01T11:38:15;11.60;64.50
19050;DHT22;9657;45.940;12.840;2023-03-01T11:40:46;11.60;64.40
19050;DHT22;9657;45.940;12.840;2023-03-01T11:43:21;11.60;64.30
19050;DHT22;9657;45.940;12.840;2023-03-01T11:49:39;11.60;64.30
19050;DHT22;9657;45.940;12.840;2023-03-01T11:52:17;11.60;64.30
19050;DHT22;9657;45.940;12.840;2023-03-01T11:54:57;11.60;64.20
19050;DHT22;9657;45.940;12.840;2023-03-01T11:57:40;11.60;64.20
19050;DHT22;9657;45.940;12.840;2023-03-01T12:00:23;11.60;64.20
19050;DHT22;9657;45.940;12.840;2023-03-01T12:09:21;11.60;64.30
19050;DHT22;9657;45.940;12.840;2023-03-01T12:12:07;11.60;64.20
19050;DHT22;9657;45.940;12.840;2023-03-01T12:14:54;11.60;64.20
19050;DHT22;9657;45.940;12.840;2023-03-01T12:17:41;11.70;64.20
19050;DHT22;9657;45.940;12.840;2023-03-01T12:20:20;11.70;64.10
19050;DHT22;9657;45.940;12.840;2023-03-01T12:25:49;11.70;64.30
19050;DHT22;9657;45.940;12.840;2023-03-01T12:28:38;11.70;64.20
19050;DHT22;9657;45.940;12.840;2023-03-01T12:31:31;11.70;64.10
19050;DHT22;9657;45.940;12.840;2023-03-01T12:34:03;11.70;64.10
19050;DHT22;9657;45.940;12.840;2023-03-01T12:36:44;11.70;64.20
19050;DHT22;9657;45.940;12.840;2023-03-01T12:39:32;11.70;64.20
19050;DHT22;9657;45.940;12.840;2023-03-01T12:42:05;11.70;64.20
19050;DHT22;9657;45.940;12.840;2023-03-01T12:44:52;11.70;64.30
19050;DHT22;9657;45.940;12.840;2023-03-01T12:47:45;11.70;64.20
19050;DHT22;9657;45.940;12.840;2023-03-01T12:50:20;11.60;64.10
19050;DHT22;9657;45.940;12.840;2023-03-01T12:52:51;11.70;64.20
19050;DHT22;9657;45.940;12.840;2023-03-01T12:55:26;11.70;64.20
19050;DHT22;9657;45.940;12.840;2023-03-01T12:58:06;11.70;64.20
19050;DHT22;9657;45.940;12.840;2023-03-01T13:00:41;11.70;64.10
19050;DHT22;9657;45.940;12.840;2023-03-01T13:03:20;11.70;64.20
19050;DHT22;9657;45.940;12.840;2023-03-01T13:06:02;11.70;64.20
19050;DHT22;9657;45.940;12.840;2023-03-01T13:08:35;11.70;64.20
19050;DHT22;9657;45.940;12.840;2023-03-01T13:11:06;11.70;64.20
19050;DHT22;9657;45.940;12.840;2023-03-01T13:13:37;11.60;64.20
19050;DHT22;9657;45.940;12.840;2023-03-01T13:16:22;11.70;64.30
19050;DHT22;9657;45.940;12.840;2023-03-01T13:18:49;11.70;64.20
19050;DHT22;9657;45.940;12.840;2023-03-01T13:21:30;11.60;64.20
19050;DHT22;9657;45.940;12.840;2023-03-01T13:23:57;11.70;65.00
19050;DHT22;9657;45.940;12.840;2023-03-01T13:26:24;11.60;64.20
19050;DHT22;9657;45.940;12.840;2023-03-01T13:28:55;11.60;64.30
19050;DHT22;9657;45.940;12.840;2023-03-01T13:34:46;11.70;64.30
19050;DHT22;9657;45.940;12.840;2023-03-01T13:37:27;11.70;64.30
19050;DHT22;9657;45.940;12.840;2023-03-01T13:39:58;11.70;64.20
19050;DHT22;9657;45.940;12.840;2023-03-01T13:42:47;11.70;64.30
19050;DHT22;9657;45.940;12.840;2023-03-01T13:45:23;11.70;64.20
19050;DHT22;9657;45.940;12.840;2023-03-01T13:47:57;11.70;64.30
19050;DHT22;9657;45.940;12.840;2023-03-01T13:50:28;11.70;64.30
19050;DHT22;9657;45.940;12.840;2023-03-01T13:52:59;11.70;64.30
19050;DHT22;9657;45.940;12.840;2023-03-01T13:55:34;11.70;64.30
19050;DHT22;9657;45.940;12.840;2023-03-01T13:58:12;11.70;64.30
19050;DHT22;9657;45.940;12.840;2023-03-01T14:00:41;11.70;64.30
19050;DHT22;9657;45.940;12.840;2023-03-01T14:03:14;11.70;64.30
19050;DHT22;9657;45.940;12.840;2023-03-01T14:05:50;11.70;64.30
19050;DHT22;9657;45.940;12.840;2023-03-01T14:08:25;11.70;64.30
19050;DHT22;9657;45.940;12.840;2023-03-01T14:20:08;11.70;64.20
19050;DHT22;9657;45.940;12.840;2023-03-01T14:22:41;11.70;64.30
19050;DHT22;9657;45.940;12.840;2023-03-01T14:25:20;11.70;64.20
19050;DHT22;9657;45.940;12.840;2023-03-01T14:27:57;11.70;64.30
19050;DHT22;9657;45.940;12.840;2023-03-01T14:30:27;11.70;64.30
19050;DHT22;9657;45.940;12.840;2023-03-01T14:32:56;11.70;64.30
19050;DHT22;9657;45.940;12.840;2023-03-01T14:35:25;11.70;64.30
19050;DHT22;9657;45.940;12.840;2023-03-01T14:37:54;11.70;64.30
19050;DHT22;9657;45.940;12.840;2023-03-01T14:40:27;11.70;64.30
19050;DHT22;9657;45.940;12.840;2023-03-01T14:42:56;11.70;64.30
19050;DHT22;9657;45.940;12.840;2023-03-01T14:45:26;11.70;64.30
19050;DHT22;9657;45.940;12.840;2023-03-01T14:47:54;11.70;64.30
19050;DHT22;9657;45.940;12.840;2023-03-01T14:50:26;11.70;64.20
19050;DHT22;9657;45.940;12.840;2023-03-01T14:52:57;11.70;64.20
19050;DHT22;9657;45.940;12.840;2023-03-01T14:55:28;11.70;64.30
19050;DHT22;9657;45.940;12.840;2023-03-01T14:57:57;11.70;65.10
19050;DHT22;9657;45.940;12.840;2023-03-01T15:00:27;11.70;64.30
19050;DHT22;9657;45.940;12.840;2023-03-01T15:02:57;11.70;64.30
19050;DHT22;9657;45.940;12.840;2023-03-01T15:05:29;11.70;64.20
19050;DHT22;9657;45.940;12.840;2023-03-01T15:08:00;11.70;64.30
19050;DHT22;9657;45.940;12.840;2023-03-01T15:10:30;11.70;64.20
19050;DHT22;9657;45.940;12.840;2023-03-01T15:13:10;11.70;64.30
19050;DHT22;9657;45.940;12.840;2023-03-01T15:15:40;11.70;64.20
19050;DHT22;9657;45.940;12.840;2023-03-01T15:18:16;11.70;64.30
19050;DHT22;9657;45.940;12.840;2023-03-01T15:20:44;11.70;64.20
19050;DHT22;9657;45.940;12.840;2023-03-01T15:23:21;11.70;64.30
19050;DHT22;9657;45.940;12.840;2023-03-01T15:25:49;11.70;64.20
19050;DHT22;9657;45.940;12.840;2023-03-01T15:28:23;11.70;64.20
19050;DHT22;9657;45.940;12.840;2023-03-01T15:30:55;11.70;64.20
19050;DHT22;9657;45.940;12.840;2023-03-01T15:33:33;11.70;64.20
19050;DHT22;9657;45.940;12.840;2023-03-01T15:36:02;11.70;64.30
19050;DHT22;9657;45.940;12.840;2023-03-01T15:38:34;11.70;64.20
19050;DHT22;9657;45.940;12.840;2023-03-01T15:41:19;11.70;64.20
19050;DHT22;9657;45.940;12.840;2023-03-01T15:43:48;11.70;64.20
19050;DHT22;9657;45.940;12.840;2023-03-01T15:46:21;11.70;64.20
19050;DHT22;9657;45.940;12.840;2023-03-01T15:48:52;11.70;64.20
19050;DHT22;9657;45.940;12.840;2023-03-01T15:51:26;11.70;64.20
19050;DHT22;9657;45.940;12.840;2023-03-01T15:53:56;11.70;64.20
19050;DHT22;9657;45.940;12.840;2023-03-01T15:56:25;11.70;64.20
19050;DHT22;9657;45.940;12.840;2023-03-01T15:58:52;11.70;64.20
19050;DHT22;9657;45.940;12.840;2023-03-01T16:01:19;11.70;64.20
19050;DHT22;9657;45.940;12.840;2023-03-01T16:03:46;11.70;64.20
19050;DHT22;9657;45.940;12.840;2023-03-01T16:06:13;11.70;64.20
19050;DHT22;9657;45.940;12.840;2023-03-01T16:08:40;11.70;64.20
19050;DHT22;9657;45.940;12.840;2023-03-01T16:11:14;11.70;64.10
19050;DHT22;9657;45.940;12.840;2023-03-01T16:13:42;11.70;64.10
19050;DHT22;9657;45.940;12.840;2023-03-01T16:16:10;11.70;64.10
19050;DHT22;9657;45.940;12.840;2023-03-01T16:18:41;11.70;64.10
19050;DHT22;9657;45.940;12.840;2023-03-01T16:21:13;11.70;64.10